createdAt,value
2018-09-01T00:01:06.838Z,17.10
2018-09-01T00:03:36.025Z,17.10
2018-09-01T00:06:05.114Z,17.10
2018-09-01T00:08:34.250Z,17.10
2018-09-01T00:11:03.407Z,17.10
2018-09-01T00:13:32.593Z,17.00
2018-09-01T00:16:01.703Z,17.00
2018-09-01T00:18:31.168Z,17.00
2018-09-01T00:21:00.342Z,17.00
2018-09-01T00:23:29.449Z,17.00
2018-09-01T00:25:58.562Z,17.00
2018-09-01T00:28:33.243Z,16.90
2018-09-01T00:31:02.341Z,16.90
2018-09-01T00:33:31.602Z,16.80
2018-09-01T00:36:01.856Z,16.80
2018-09-01T00:38:36.247Z,16.80
2018-09-01T00:41:05.529Z,16.90
2018-09-01T00:43:34.631Z,16.90
2018-09-01T00:46:04.285Z,16.90
2018-09-01T00:48:34.878Z,16.90
2018-09-01T00:51:04.047Z,16.80
2018-09-01T00:53:33.199Z,16.80
2018-09-01T00:56:02.317Z,16.80
2018-09-01T00:58:31.503Z,16.80
2018-09-01T01:01:00.686Z,16.80
2018-09-01T01:03:29.846Z,16.70
2018-09-01T01:05:59.112Z,16.70
2018-09-01T01:08:28.241Z,16.70
2018-09-01T01:10:57.353Z,16.70
2018-09-01T01:13:26.436Z,16.60
2018-09-01T01:15:55.648Z,16.50
2018-09-01T01:18:24.834Z,16.50
2018-09-01T01:20:53.977Z,16.50
2018-09-01T01:23:23.141Z,16.50
2018-09-01T01:25:52.309Z,16.50
2018-09-01T01:28:25.170Z,16.50
2018-09-01T01:30:54.372Z,16.50
2018-09-01T01:33:23.486Z,16.50
2018-09-01T01:35:52.614Z,16.40
2018-09-01T01:38:21.772Z,16.30
2018-09-01T01:40:50.882Z,16.20
2018-09-01T01:43:20.006Z,16.20
2018-09-01T01:45:49.119Z,16.20
2018-09-01T01:48:18.252Z,16.20
2018-09-01T01:50:47.326Z,16.20
2018-09-01T01:53:16.466Z,16.20
2018-09-01T01:55:45.559Z,16.20
2018-09-01T01:58:14.601Z,16.30
2018-09-01T02:00:43.854Z,16.30
2018-09-01T02:03:12.955Z,16.30
2018-09-01T02:05:42.086Z,16.30
2018-09-01T02:08:11.211Z,16.30
2018-09-01T02:10:40.303Z,16.20
2018-09-01T02:13:09.391Z,16.30
2018-09-01T02:15:38.501Z,16.30
2018-09-01T02:18:07.594Z,16.30
2018-09-01T02:20:36.734Z,16.30
2018-09-01T02:23:06.246Z,16.30
2018-09-01T02:25:35.473Z,16.30
2018-09-01T02:28:04.579Z,16.20
2018-09-01T02:30:33.770Z,16.20
2018-09-01T02:33:03.024Z,16.20
2018-09-01T02:35:32.243Z,16.20
2018-09-01T02:38:01.461Z,16.20
2018-09-01T02:40:30.611Z,16.20
2018-09-01T02:42:59.741Z,16.20
2018-09-01T02:45:28.895Z,16.20
2018-09-01T02:47:57.985Z,16.10
2018-09-01T02:50:27.077Z,16.10
2018-09-01T02:52:56.174Z,16.10
2018-09-01T02:55:25.253Z,16.10
2018-09-01T02:57:55.014Z,16.10
2018-09-01T03:00:29.180Z,16.20
2018-09-01T03:02:58.319Z,16.20
2018-09-01T03:05:27.591Z,16.20
2018-09-01T03:07:56.734Z,16.30
2018-09-01T03:10:25.859Z,16.30
2018-09-01T03:12:54.958Z,16.30
2018-09-01T03:15:24.225Z,16.30
2018-09-01T03:17:53.408Z,16.30
2018-09-01T03:20:25.962Z,16.30
2018-09-01T03:22:55.177Z,16.30
2018-09-01T03:25:24.310Z,16.30
2018-09-01T03:27:54.758Z,16.30
2018-09-01T03:30:24.038Z,16.30
2018-09-01T03:32:53.174Z,16.30
2018-09-01T03:35:22.234Z,16.30
2018-09-01T03:37:51.329Z,16.20
2018-09-01T03:40:20.381Z,16.20
2018-09-01T03:42:49.518Z,16.20
2018-09-01T03:49:56.630Z,16.20
2018-09-01T03:52:25.809Z,16.20
2018-09-01T03:54:56.279Z,16.20
2018-09-01T03:57:25.421Z,16.20
2018-09-01T03:59:54.478Z,16.20
2018-09-01T04:02:23.585Z,16.20
2018-09-01T04:04:52.926Z,16.20
2018-09-01T04:07:21.981Z,16.10
2018-09-01T04:09:51.144Z,16.10
2018-09-01T04:12:20.227Z,16.00
2018-09-01T04:14:49.438Z,16.00
2018-09-01T04:17:18.497Z,15.90
2018-09-01T04:19:47.890Z,15.90
2018-09-01T04:22:17.042Z,15.90
2018-09-01T04:24:46.173Z,16.00
2018-09-01T04:27:15.259Z,16.00
2018-09-01T04:29:44.319Z,16.00
2018-09-01T04:32:13.414Z,16.00
2018-09-01T04:34:42.526Z,16.00
2018-09-01T04:37:11.618Z,16.00
2018-09-01T04:39:40.727Z,16.10
2018-09-01T04:42:09.855Z,16.10
2018-09-01T04:46:48.033Z,16.10
2018-09-01T04:49:17.102Z,16.10
2018-09-01T04:51:46.185Z,16.10
2018-09-01T04:54:15.225Z,16.10
2018-09-01T04:56:44.322Z,16.20
2018-09-01T04:59:14.106Z,16.10
2018-09-01T05:01:43.210Z,16.20
2018-09-01T05:04:12.320Z,16.20
2018-09-01T05:06:41.404Z,16.20
2018-09-01T05:09:10.532Z,16.20
2018-09-01T05:11:39.793Z,16.20
2018-09-01T05:14:09.151Z,16.20
2018-09-01T05:16:38.349Z,16.30
2018-09-01T05:19:07.584Z,16.30
2018-09-01T05:21:36.737Z,16.40
2018-09-01T05:24:05.933Z,16.50
2018-09-01T05:26:35.153Z,16.50
2018-09-01T05:29:04.374Z,16.50
2018-09-01T05:31:33.490Z,16.60
2018-09-01T05:34:02.673Z,16.60
2018-09-01T05:36:31.844Z,16.70
2018-09-01T05:39:00.995Z,16.70
2018-09-01T05:41:30.130Z,16.70
2018-09-01T05:44:01.490Z,16.70
2018-09-01T05:46:30.605Z,16.70
2018-09-01T05:48:59.685Z,16.80
2018-09-01T05:51:28.955Z,16.80
2018-09-01T05:53:58.140Z,16.90
2018-09-01T05:56:27.226Z,16.90
2018-09-01T05:58:56.265Z,16.90
2018-09-01T06:01:25.433Z,17.00
2018-09-01T06:03:55.197Z,17.10
2018-09-01T06:06:24.330Z,17.20
2018-09-01T06:08:53.478Z,17.20
2018-09-01T06:11:22.529Z,17.30
2018-09-01T06:13:51.626Z,17.40
2018-09-01T06:16:20.750Z,17.40
2018-09-01T06:18:49.881Z,17.40
2018-09-01T06:21:19.279Z,17.40
2018-09-01T06:23:48.420Z,17.50
2018-09-01T06:26:17.512Z,17.50
2018-09-01T06:28:50.781Z,17.60
2018-09-01T06:31:20.819Z,17.60
2018-09-01T06:33:49.937Z,17.40
2018-09-01T06:36:19.073Z,17.40
2018-09-01T06:38:48.170Z,17.30
2018-09-01T06:41:17.233Z,17.30
2018-09-01T06:43:46.341Z,17.10
2018-09-01T06:46:15.546Z,17.00
2018-09-01T06:48:44.686Z,17.00
2018-09-01T06:51:13.778Z,17.00
2018-09-01T06:53:42.838Z,17.00
2018-09-01T06:56:11.972Z,17.00
2018-09-01T06:58:41.062Z,17.10
2018-09-01T07:01:10.157Z,17.10
2018-09-01T07:03:39.253Z,17.20
2018-09-01T07:06:08.341Z,17.30
2018-09-01T07:08:37.438Z,17.40
2018-09-01T07:11:06.550Z,17.50
2018-09-01T07:13:35.743Z,17.50
2018-09-01T07:16:05.033Z,17.50
2018-09-01T07:18:34.225Z,17.60
2018-09-01T07:21:06.657Z,17.60
2018-09-01T07:23:35.755Z,17.60
2018-09-01T07:26:04.936Z,17.70
2018-09-01T07:28:34.062Z,17.70
2018-09-01T07:31:03.600Z,17.70
2018-09-01T07:33:32.346Z,17.70
2018-09-01T07:36:01.409Z,17.80
2018-09-01T07:38:30.458Z,17.90
2018-09-01T07:40:59.587Z,17.90
2018-09-01T07:43:28.671Z,17.90
2018-09-01T07:45:57.842Z,18.00
2018-09-01T07:48:26.926Z,18.00
2018-09-01T07:50:56.061Z,18.10
2018-09-01T07:53:25.085Z,18.10
2018-09-01T07:55:54.207Z,18.20
2018-09-01T07:58:23.231Z,18.20
2018-09-01T08:00:52.333Z,18.30
2018-09-01T08:03:21.369Z,18.50
2018-09-01T08:05:50.492Z,18.60
2018-09-01T08:08:19.562Z,18.70
2018-09-01T08:10:48.740Z,18.90
2018-09-01T08:13:17.877Z,19.00
2018-09-01T08:15:47.013Z,19.00
2018-09-01T08:18:16.110Z,19.10
2018-09-01T08:20:45.174Z,19.10
2018-09-01T08:23:14.388Z,19.10
2018-09-01T08:25:43.454Z,19.10
2018-09-01T08:28:12.730Z,19.10
2018-09-01T08:30:41.845Z,19.10
2018-09-01T08:33:10.929Z,19.10
2018-09-01T08:35:40.062Z,19.10
2018-09-01T08:38:09.102Z,19.10
2018-09-01T08:40:38.229Z,19.10
2018-09-01T08:43:07.404Z,19.00
2018-09-01T08:45:36.561Z,19.00
2018-09-01T08:48:05.762Z,18.90
2018-09-01T08:50:34.879Z,18.90
2018-09-01T08:53:04.353Z,18.80
2018-09-01T08:55:33.606Z,18.70
2018-09-01T08:58:03.513Z,18.70
2018-09-01T09:00:32.681Z,18.60
2018-09-01T09:03:01.903Z,18.50
2018-09-01T09:05:30.994Z,18.50
2018-09-01T09:08:00.110Z,18.40
2018-09-01T09:10:29.193Z,18.40
2018-09-01T09:12:58.483Z,18.30
2018-09-01T09:15:27.878Z,18.20
2018-09-01T09:17:57.017Z,18.20
2018-09-01T09:20:26.125Z,18.10
2018-09-01T09:22:55.272Z,17.90
2018-09-01T09:25:24.362Z,17.80
2018-09-01T09:27:53.641Z,17.60
2018-09-01T09:30:22.846Z,17.40
2018-09-01T09:32:51.973Z,17.30
2018-09-01T09:35:21.123Z,17.30
2018-09-01T09:37:50.252Z,17.20
2018-09-01T09:40:19.315Z,17.20
2018-09-01T09:42:48.418Z,17.30
2018-09-01T09:45:17.478Z,17.30
2018-09-01T09:47:46.594Z,17.30
2018-09-01T09:50:15.659Z,17.40
2018-09-01T09:52:44.738Z,17.30
2018-09-01T09:55:13.830Z,17.30
2018-09-01T09:57:42.946Z,17.20
2018-09-01T10:00:12.088Z,17.20
2018-09-01T10:02:41.185Z,17.20
2018-09-01T10:05:10.330Z,17.20
2018-09-01T10:07:39.434Z,17.20
2018-09-01T10:10:08.573Z,17.20
2018-09-01T10:12:37.653Z,17.20
2018-09-01T10:15:06.774Z,17.10
2018-09-01T10:17:35.834Z,17.20
2018-09-01T10:20:05.072Z,17.20
2018-09-01T10:22:34.154Z,17.20
2018-09-01T10:25:03.250Z,17.20
2018-09-01T10:27:32.329Z,17.20
2018-09-01T10:30:01.396Z,17.20
2018-09-01T10:32:30.529Z,17.30
2018-09-01T10:34:59.673Z,17.30
2018-09-01T10:37:28.765Z,17.40
2018-09-01T10:39:57.868Z,17.50
2018-09-01T10:42:26.982Z,17.60
2018-09-01T10:44:56.110Z,17.70
2018-09-01T10:47:26.221Z,17.80
2018-09-01T10:49:55.382Z,17.90
2018-09-01T10:52:24.473Z,18.00
2018-09-01T10:54:54.677Z,18.10
2018-09-01T10:57:23.790Z,18.30
2018-09-01T10:59:53.010Z,18.50
2018-09-01T11:02:22.074Z,18.60
2018-09-01T11:04:51.287Z,18.90
2018-09-01T11:07:23.806Z,19.10
2018-09-01T11:09:53.109Z,19.30
2018-09-01T11:12:22.328Z,19.40
2018-09-01T11:14:51.849Z,19.50
2018-09-01T11:17:20.941Z,19.70
2018-09-01T11:19:50.281Z,19.70
2018-09-01T11:22:19.430Z,19.70
2018-09-01T11:24:48.578Z,19.70
2018-09-01T11:27:17.836Z,19.70
2018-09-01T11:29:46.982Z,19.60
2018-09-01T11:32:16.167Z,19.50
2018-09-01T11:34:45.265Z,19.40
2018-09-01T11:37:14.360Z,19.30
2018-09-01T11:39:43.487Z,19.30
2018-09-01T11:42:12.637Z,19.20
2018-09-01T11:44:41.742Z,19.20
2018-09-01T11:47:10.973Z,19.10
2018-09-01T11:49:40.029Z,19.10
2018-09-01T11:52:09.211Z,19.00
2018-09-01T11:54:38.330Z,19.00
2018-09-01T11:57:07.445Z,19.00
2018-09-01T11:59:36.572Z,19.00
2018-09-01T12:02:05.837Z,19.00
2018-09-01T12:04:34.976Z,19.00
2018-09-01T12:07:04.250Z,18.90
2018-09-01T12:09:35.491Z,18.90
2018-09-01T12:12:04.593Z,18.80
2018-09-01T12:14:34.202Z,18.70
2018-09-01T12:17:03.306Z,18.70
2018-09-01T12:19:32.607Z,18.70
2018-09-01T12:22:01.806Z,18.70
2018-09-01T12:24:30.901Z,18.60
2018-09-01T12:27:00.098Z,18.60
2018-09-01T12:29:29.193Z,18.60
2018-09-01T12:31:58.330Z,18.60
2018-09-01T12:34:27.630Z,18.60
2018-09-01T12:36:56.836Z,18.60
2018-09-01T12:39:25.917Z,18.60
2018-09-01T12:41:55.134Z,18.70
2018-09-01T12:44:24.395Z,18.70
2018-09-01T12:46:53.549Z,18.80
2018-09-01T12:49:22.741Z,18.80
2018-09-01T12:51:51.958Z,18.80
2018-09-01T12:54:21.106Z,18.70
2018-09-01T12:56:50.292Z,18.70
2018-09-01T12:59:19.502Z,18.70
2018-09-01T13:01:48.660Z,18.70
2018-09-01T13:04:17.818Z,18.70
2018-09-01T13:06:48.434Z,18.70
2018-09-01T13:09:17.579Z,18.80
2018-09-01T13:11:46.743Z,18.80
2018-09-01T13:14:15.955Z,18.90
2018-09-01T13:16:45.098Z,19.00
2018-09-01T13:19:14.239Z,19.00
2018-09-01T13:21:43.769Z,19.10
2018-09-01T13:24:12.974Z,19.10
2018-09-01T13:26:42.396Z,19.00
2018-09-01T13:29:11.533Z,19.00
2018-09-01T13:31:40.910Z,19.00
2018-09-01T13:34:10.168Z,18.90
2018-09-01T13:36:40.379Z,18.90
2018-09-01T13:39:11.767Z,19.00
2018-09-01T13:41:54.794Z,19.10
2018-09-01T13:44:24.060Z,19.20
2018-09-01T13:49:39.938Z,19.50
2018-09-01T13:52:10.355Z,19.50
2018-09-01T13:57:09.070Z,19.70
2018-09-01T14:14:15.469Z,19.60
2018-09-01T14:16:45.654Z,19.70
